sensor_id;sensor_type;location;lat;lon;timestamp;temperature;humidity
9901;DHT22;4989;48.772;9.154;2023-06-19T00:00:30;26.10;51.60
9901;DHT22;4989;48.772;9.154;2023-06-19T00:05:32;26.10;51.60
9901;DHT22;4989;48.772;9.154;2023-06-19T00:10:34;26.10;51.60
9901;DHT22;4989;48.772;9.154;2023-06-19T00:15:37;26.00;51.50
9901;DHT22;4989;48.772;9.154;2023-06-19T00:20:39;26.10;51.40
9901;DHT22;4989;48.772;9.154;2023-06-19T00:25:41;26.00;51.50
9901;DHT22;4989;48.772;9.154;2023-06-19T00:30:45;26.10;51.30
9901;DHT22;4989;48.772;9.154;2023-06-19T00:35:51;26.10;51.10
9901;DHT22;4989;48.772;9.154;2023-06-19T00:40:53;26.20;50.70
9901;DHT22;4989;48.772;9.154;2023-06-19T00:45:57;26.20;50.70
9901;DHT22;4989;48.772;9.154;2023-06-19T00:51:00;26.40;50.50
9901;DHT22;4989;48.772;9.154;2023-06-19T00:56:03;26.40;50.50
9901;DHT22;4989;48.772;9.154;2023-06-19T01:01:07;26.30;50.50
9901;DHT22;4989;48.772;9.154;2023-06-19T01:06:15;26.30;51.10
9901;DHT22;4989;48.772;9.154;2023-06-19T01:11:28;25.90;51.90
9901;DHT22;4989;48.772;9.154;2023-06-19T01:16:35;25.90;52.90
9901;DHT22;4989;48.772;9.154;2023-06-19T01:21:38;26.10;51.80
9901;DHT22;4989;48.772;9.154;2023-06-19T01:26:41;25.80;52.60
9901;DHT22;4989;48.772;9.154;2023-06-19T01:31:52;25.60;53.10
9901;DHT22;4989;48.772;9.154;2023-06-19T01:37:02;25.60;53.30
9901;DHT22;4989;48.772;9.154;2023-06-19T01:42:07;25.40;54.10
9901;DHT22;4989;48.772;9.154;2023-06-19T01:47:13;25.20;55.40
9901;DHT22;4989;48.772;9.154;2023-06-19T01:52:17;24.90;55.50
9901;DHT22;4989;48.772;9.154;2023-06-19T01:57:20;24.70;56.40
9901;DHT22;4989;48.772;9.154;2023-06-19T02:02:22;24.60;57.50
9901;DHT22;4989;48.772;9.154;2023-06-19T02:07:24;24.60;57.60
9901;DHT22;4989;48.772;9.154;2023-06-19T02:12:27;24.50;57.90
9901;DHT22;4989;48.772;9.154;2023-06-19T02:17:29;24.50;58.60
9901;DHT22;4989;48.772;9.154;2023-06-19T02:22:32;24.40;59.20
9901;DHT22;4989;48.772;9.154;2023-06-19T02:27:34;24.30;59.60
9901;DHT22;4989;48.772;9.154;2023-06-19T02:32:36;24.60;58.80
9901;DHT22;4989;48.772;9.154;2023-06-19T02:37:39;25.00;57.90
9901;DHT22;4989;48.772;9.154;2023-06-19T02:42:41;24.90;58.40
9901;DHT22;4989;48.772;9.154;2023-06-19T02:47:43;25.50;56.80
9901;DHT22;4989;48.772;9.154;2023-06-19T02:52:46;25.30;57.80
9901;DHT22;4989;48.772;9.154;2023-06-19T02:57:49;25.40;57.40
9901;DHT22;4989;48.772;9.154;2023-06-19T03:02:51;25.60;57.30
9901;DHT22;4989;48.772;9.154;2023-06-19T03:07:53;25.00;58.50
9901;DHT22;4989;48.772;9.154;2023-06-19T03:12:56;25.20;58.40
9901;DHT22;4989;48.772;9.154;2023-06-19T03:18:00;24.30;60.40
9901;DHT22;4989;48.772;9.154;2023-06-19T03:23:07;24.30;60.70
9901;DHT22;4989;48.772;9.154;2023-06-19T03:28:10;24.30;61.30
9901;DHT22;4989;48.772;9.154;2023-06-19T03:33:12;23.80;63.80
9901;DHT22;4989;48.772;9.154;2023-06-19T03:38:20;23.50;63.90
9901;DHT22;4989;48.772;9.154;2023-06-19T03:43:23;23.40;64.70
9901;DHT22;4989;48.772;9.154;2023-06-19T03:48:27;23.20;65.20
9901;DHT22;4989;48.772;9.154;2023-06-19T03:53:29;22.90;66.00
9901;DHT22;4989;48.772;9.154;2023-06-19T03:58:31;22.80;67.80
9901;DHT22;4989;48.772;9.154;2023-06-19T04:03:34;22.60;67.50
9901;DHT22;4989;48.772;9.154;2023-06-19T04:08:36;22.50;67.70
9901;DHT22;4989;48.772;9.154;2023-06-19T04:13:38;23.10;66.80
9901;DHT22;4989;48.772;9.154;2023-06-19T04:18:41;23.30;66.10
9901;DHT22;4989;48.772;9.154;2023-06-19T04:23:43;23.20;67.50
9901;DHT22;4989;48.772;9.154;2023-06-19T04:28:45;23.20;68.20
9901;DHT22;4989;48.772;9.154;2023-06-19T04:33:47;22.40;70.40
9901;DHT22;4989;48.772;9.154;2023-06-19T04:38:50;22.50;70.20
9901;DHT22;4989;48.772;9.154;2023-06-19T04:43:55;22.50;70.60
9901;DHT22;4989;48.772;9.154;2023-06-19T04:48:57;22.80;69.80
9901;DHT22;4989;48.772;9.154;2023-06-19T04:54:00;24.00;65.90
9901;DHT22;4989;48.772;9.154;2023-06-19T04:59:02;24.50;64.40
9901;DHT22;4989;48.772;9.154;2023-06-19T05:04:04;24.60;64.80
9901;DHT22;4989;48.772;9.154;2023-06-19T05:09:07;24.00;66.60
9901;DHT22;4989;48.772;9.154;2023-06-19T05:14:09;24.70;63.30
9901;DHT22;4989;48.772;9.154;2023-06-19T05:19:11;25.00;63.60
9901;DHT22;4989;48.772;9.154;2023-06-19T05:24:13;25.10;64.20
9901;DHT22;4989;48.772;9.154;2023-06-19T05:29:16;25.10;64.20
9901;DHT22;4989;48.772;9.154;2023-06-19T05:34:18;24.30;66.50
9901;DHT22;4989;48.772;9.154;2023-06-19T05:39:20;24.00;67.70
9901;DHT22;4989;48.772;9.154;2023-06-19T05:44:22;23.30;69.60
9901;DHT22;4989;48.772;9.154;2023-06-19T05:49:25;23.00;70.20
9901;DHT22;4989;48.772;9.154;2023-06-19T05:54:27;23.50;69.70
9901;DHT22;4989;48.772;9.154;2023-06-19T05:59:29;23.30;70.40
9901;DHT22;4989;48.772;9.154;2023-06-19T06:04:31;23.60;70.00
9901;DHT22;4989;48.772;9.154;2023-06-19T06:09:33;23.80;69.00
9901;DHT22;4989;48.772;9.154;2023-06-19T06:14:36;24.70;67.20
9901;DHT22;4989;48.772;9.154;2023-06-19T06:19:38;24.70;66.40
9901;DHT22;4989;48.772;9.154;2023-06-19T06:24:40;24.30;67.80
9901;DHT22;4989;48.772;9.154;2023-06-19T06:29:43;24.00;69.20
9901;DHT22;4989;48.772;9.154;2023-06-19T06:34:45;24.30;68.10
9901;DHT22;4989;48.772;9.154;2023-06-19T06:39:51;24.70;67.20
9901;DHT22;4989;48.772;9.154;2023-06-19T06:44:53;24.90;65.50
9901;DHT22;4989;48.772;9.154;2023-06-19T06:49:55;24.90;66.20
9901;DHT22;4989;48.772;9.154;2023-06-19T06:54:57;25.10;65.00
9901;DHT22;4989;48.772;9.154;2023-06-19T07:00:00;24.90;64.70
9901;DHT22;4989;48.772;9.154;2023-06-19T07:05:02;24.90;65.00
9901;DHT22;4989;48.772;9.154;2023-06-19T07:10:05;24.90;64.90
9901;DHT22;4989;48.772;9.154;2023-06-19T07:15:08;24.90;64.80
9901;DHT22;4989;48.772;9.154;2023-06-19T07:20:10;24.90;65.10
9901;DHT22;4989;48.772;9.154;2023-06-19T07:25:13;24.70;65.20
9901;DHT22;4989;48.772;9.154;2023-06-19T07:30:17;24.80;64.70
9901;DHT22;4989;48.772;9.154;2023-06-19T07:35:19;25.30;63.80
9901;DHT22;4989;48.772;9.154;2023-06-19T07:40:21;26.00;62.10
9901;DHT22;4989;48.772;9.154;2023-06-19T07:45:24;26.60;60.90
9901;DHT22;4989;48.772;9.154;2023-06-19T07:50:27;26.70;59.20
9901;DHT22;4989;48.772;9.154;2023-06-19T07:55:30;26.50;59.80
9901;DHT22;4989;48.772;9.154;2023-06-19T08:00:32;25.60;61.20
9901;DHT22;4989;48.772;9.154;2023-06-19T08:05:34;25.80;61.90
9901;DHT22;4989;48.772;9.154;2023-06-19T08:10:37;26.20;61.30
9901;DHT22;4989;48.772;9.154;2023-06-19T08:15:39;26.00;61.00
9901;DHT22;4989;48.772;9.154;2023-06-19T08:20:41;25.80;61.70
9901;DHT22;4989;48.772;9.154;2023-06-19T08:25:44;25.50;61.90
9901;DHT22;4989;48.772;9.154;2023-06-19T08:30:46;25.70;61.60
9901;DHT22;4989;48.772;9.154;2023-06-19T08:35:48;26.20;60.60
9901;DHT22;4989;48.772;9.154;2023-06-19T08:40:51;26.20;60.90
9901;DHT22;4989;48.772;9.154;2023-06-19T08:46:15;26.50;59.70
9901;DHT22;4989;48.772;9.154;2023-06-19T08:51:26;26.50;60.60
9901;DHT22;4989;48.772;9.154;2023-06-19T08:56:31;27.20;59.10
9901;DHT22;4989;48.772;9.154;2023-06-19T09:01:37;28.00;58.10
9901;DHT22;4989;48.772;9.154;2023-06-19T09:07:07;28.00;56.80
9901;DHT22;4989;48.772;9.154;2023-06-19T09:12:19;28.30;54.90
9901;DHT22;4989;48.772;9.154;2023-06-19T09:17:30;29.10;55.40
9901;DHT22;4989;48.772;9.154;2023-06-19T09:22:44;29.60;53.10
9901;DHT22;4989;48.772;9.154;2023-06-19T09:27:47;29.90;53.10
9901;DHT22;4989;48.772;9.154;2023-06-19T09:32:50;30.10;52.30
9901;DHT22;4989;48.772;9.154;2023-06-19T09:37:53;30.00;51.80
9901;DHT22;4989;48.772;9.154;2023-06-19T09:42:56;30.40;51.50
9901;DHT22;4989;48.772;9.154;2023-06-19T09:48:05;30.90;50.60
9901;DHT22;4989;48.772;9.154;2023-06-19T09:53:22;30.70;50.30
9901;DHT22;4989;48.772;9.154;2023-06-19T09:58:26;29.90;51.70
9901;DHT22;4989;48.772;9.154;2023-06-19T10:03:31;29.70;51.80
9901;DHT22;4989;48.772;9.154;2023-06-19T10:08:41;29.70;51.60
9901;DHT22;4989;48.772;9.154;2023-06-19T10:13:48;30.10;51.30
9901;DHT22;4989;48.772;9.154;2023-06-19T10:18:50;29.60;51.80
9901;DHT22;4989;48.772;9.154;2023-06-19T10:23:55;30.40;51.30
9901;DHT22;4989;48.772;9.154;2023-06-19T10:28:58;31.10;49.90
9901;DHT22;4989;48.772;9.154;2023-06-19T10:34:03;31.00;50.00
9901;DHT22;4989;48.772;9.154;2023-06-19T10:39:05;30.50;50.40
9901;DHT22;4989;48.772;9.154;2023-06-19T10:44:09;30.40;51.40
9901;DHT22;4989;48.772;9.154;2023-06-19T10:49:14;30.10;51.00
9901;DHT22;4989;48.772;9.154;2023-06-19T10:54:16;29.80;51.50
9901;DHT22;4989;48.772;9.154;2023-06-19T10:59:19;29.90;51.60
9901;DHT22;4989;48.772;9.154;2023-06-19T11:04:21;29.90;51.60
9901;DHT22;4989;48.772;9.154;2023-06-19T11:09:25;29.50;51.70
9901;DHT22;4989;48.772;9.154;2023-06-19T11:14:32;29.10;52.80
9901;DHT22;4989;48.772;9.154;2023-06-19T11:19:41;30.60;50.90
9901;DHT22;4989;48.772;9.154;2023-06-19T11:24:46;31.90;49.40
9901;DHT22;4989;48.772;9.154;2023-06-19T11:29:55;32.70;49.10
9901;DHT22;4989;48.772;9.154;2023-06-19T11:35:05;33.10;47.40
9901;DHT22;4989;48.772;9.154;2023-06-19T11:40:11;33.40;49.00
9901;DHT22;4989;48.772;9.154;2023-06-19T11:45:18;33.50;48.10
9901;DHT22;4989;48.772;9.154;2023-06-19T11:50:27;33.50;46.90
9901;DHT22;4989;48.772;9.154;2023-06-19T11:55:31;33.50;46.90
9901;DHT22;4989;48.772;9.154;2023-06-19T12:00:34;33.00;48.20
9901;DHT22;4989;48.772;9.154;2023-06-19T12:05:38;32.60;47.50
9901;DHT22;4989;48.772;9.154;2023-06-19T12:10:41;31.60;49.70
9901;DHT22;4989;48.772;9.154;2023-06-19T12:15:43;31.10;50.80
9901;DHT22;4989;48.772;9.154;2023-06-19T12:20:45;31.10;49.80
9901;DHT22;4989;48.772;9.154;2023-06-19T12:25:48;32.40;49.50
9901;DHT22;4989;48.772;9.154;2023-06-19T12:30:50;32.60;49.70
9901;DHT22;4989;48.772;9.154;2023-06-19T12:35:53;32.10;48.60
9901;DHT22;4989;48.772;9.154;2023-06-19T12:40:56;32.60;48.00
9901;DHT22;4989;48.772;9.154;2023-06-19T12:45:58;32.20;48.20
9901;DHT22;4989;48.772;9.154;2023-06-19T12:51:01;31.90;48.60
9901;DHT22;4989;48.772;9.154;2023-06-19T12:56:04;31.60;49.70
9901;DHT22;4989;48.772;9.154;2023-06-19T13:01:13;31.60;49.30
9901;DHT22;4989;48.772;9.154;2023-06-19T13:06:15;32.00;48.30
9901;DHT22;4989;48.772;9.154;2023-06-19T13:11:18;31.80;50.10
9901;DHT22;4989;48.772;9.154;2023-06-19T13:16:20;32.80;49.80
9901;DHT22;4989;48.772;9.154;2023-06-19T13:21:43;34.10;47.80
9901;DHT22;4989;48.772;9.154;2023-06-19T13:26:45;34.20;47.60
9901;DHT22;4989;48.772;9.154;2023-06-19T13:31:48;34.10;47.90
9901;DHT22;4989;48.772;9.154;2023-06-19T13:36:50;34.50;46.20
9901;DHT22;4989;48.772;9.154;2023-06-19T13:41:53;34.60;46.60
9901;DHT22;4989;48.772;9.154;2023-06-19T13:46:55;33.60;46.70
9901;DHT22;4989;48.772;9.154;2023-06-19T13:51:57;33.40;48.30
9901;DHT22;4989;48.772;9.154;2023-06-19T13:57:00;33.10;46.90
9901;DHT22;4989;48.772;9.154;2023-06-19T14:02:02;34.10;47.40
9901;DHT22;4989;48.772;9.154;2023-06-19T14:07:04;33.10;47.10
9901;DHT22;4989;48.772;9.154;2023-06-19T14:12:08;32.40;48.50
9901;DHT22;4989;48.772;9.154;2023-06-19T14:17:10;32.20;48.80
9901;DHT22;4989;48.772;9.154;2023-06-19T14:22:12;32.20;49.10
9901;DHT22;4989;48.772;9.154;2023-06-19T14:27:15;33.40;47.80
9901;DHT22;4989;48.772;9.154;2023-06-19T14:32:17;32.70;48.50
9901;DHT22;4989;48.772;9.154;2023-06-19T14:37:19;32.50;48.90
9901;DHT22;4989;48.772;9.154;2023-06-19T14:42:22;33.00;48.20
9901;DHT22;4989;48.772;9.154;2023-06-19T14:47:25;33.20;47.40
9901;DHT22;4989;48.772;9.154;2023-06-19T14:52:27;32.50;48.20
9901;DHT22;4989;48.772;9.154;2023-06-19T14:57:30;32.70;48.00
9901;DHT22;4989;48.772;9.154;2023-06-19T15:02:32;32.30;48.60
9901;DHT22;4989;48.772;9.154;2023-06-19T15:07:38;31.80;49.10
9901;DHT22;4989;48.772;9.154;2023-06-19T15:12:40;31.70;49.40
9901;DHT22;4989;48.772;9.154;2023-06-19T15:17:42;31.80;49.00
9901;DHT22;4989;48.772;9.154;2023-06-19T15:22:45;32.00;49.00
9901;DHT22;4989;48.772;9.154;2023-06-19T15:27:47;31.90;49.10
9901;DHT22;4989;48.772;9.154;2023-06-19T15:32:50;31.80;49.30
9901;DHT22;4989;48.772;9.154;2023-06-19T15:37:53;31.80;49.90
9901;DHT22;4989;48.772;9.154;2023-06-19T15:42:56;31.70;49.80
9901;DHT22;4989;48.772;9.154;2023-06-19T15:47:59;31.40;49.70
9901;DHT22;4989;48.772;9.154;2023-06-19T15:53:02;31.60;49.90
9901;DHT22;4989;48.772;9.154;2023-06-19T15:58:04;31.70;49.60
9901;DHT22;4989;48.772;9.154;2023-06-19T16:03:06;31.50;49.50
9901;DHT22;4989;48.772;9.154;2023-06-19T16:08:10;31.40;49.70
9901;DHT22;4989;48.772;9.154;2023-06-19T16:13:12;31.10;50.00
9901;DHT22;4989;48.772;9.154;2023-06-19T16:18:16;30.80;50.50
9901;DHT22;4989;48.772;9.154;2023-06-19T16:23:18;30.60;51.10
9901;DHT22;4989;48.772;9.154;2023-06-19T16:28:21;30.40;51.80
9901;DHT22;4989;48.772;9.154;2023-06-19T16:33:23;29.80;52.70
9901;DHT22;4989;48.772;9.154;2023-06-19T16:38:25;29.50;53.40
9901;DHT22;4989;48.772;9.154;2023-06-19T16:43:28;29.60;53.80
9901;DHT22;4989;48.772;9.154;2023-06-19T16:48:30;29.20;54.40
9901;DHT22;4989;48.772;9.154;2023-06-19T16:53:32;29.20;54.60
9901;DHT22;4989;48.772;9.154;2023-06-19T16:58:34;29.30;54.80
9901;DHT22;4989;48.772;9.154;2023-06-19T17:03:37;29.40;54.90
9901;DHT22;4989;48.772;9.154;2023-06-19T17:08:39;29.50;54.50
9901;DHT22;4989;48.772;9.154;2023-06-19T17:13:41;29.30;54.20
9901;DHT22;4989;48.772;9.154;2023-06-19T17:18:44;29.40;55.10
9901;DHT22;4989;48.772;9.154;2023-06-19T17:23:46;29.50;55.00
9901;DHT22;4989;48.772;9.154;2023-06-19T17:28:48;29.20;55.10
9901;DHT22;4989;48.772;9.154;2023-06-19T17:33:51;29.10;55.20
9901;DHT22;4989;48.772;9.154;2023-06-19T17:38:53;29.10;54.50
9901;DHT22;4989;48.772;9.154;2023-06-19T17:43:56;29.10;55.00
9901;DHT22;4989;48.772;9.154;2023-06-19T17:48:58;29.00;55.20
9901;DHT22;4989;48.772;9.154;2023-06-19T17:54:01;29.20;54.90
9901;DHT22;4989;48.772;9.154;2023-06-19T17:59:06;29.30;54.90
9901;DHT22;4989;48.772;9.154;2023-06-19T18:04:08;29.30;55.00
9901;DHT22;4989;48.772;9.154;2023-06-19T18:09:11;29.30;54.80
9901;DHT22;4989;48.772;9.154;2023-06-19T18:14:13;29.20;55.00
9901;DHT22;4989;48.772;9.154;2023-06-19T18:19:15;29.10;55.00
9901;DHT22;4989;48.772;9.154;2023-06-19T18:24:18;29.20;55.10
9901;DHT22;4989;48.772;9.154;2023-06-19T18:29:21;29.10;55.20
9901;DHT22;4989;48.772;9.154;2023-06-19T18:34:24;29.10;55.60
9901;DHT22;4989;48.772;9.154;2023-06-19T18:39:27;28.90;55.80
9901;DHT22;4989;48.772;9.154;2023-06-19T18:44:29;28.90;55.90
9901;DHT22;4989;48.772;9.154;2023-06-19T18:49:31;28.90;56.20
9901;DHT22;4989;48.772;9.154;2023-06-19T18:54:33;28.90;56.30
9901;DHT22;4989;48.772;9.154;2023-06-19T18:59:36;28.90;56.30
9901;DHT22;4989;48.772;9.154;2023-06-19T19:04:38;28.70;56.60
9901;DHT22;4989;48.772;9.154;2023-06-19T19:09:43;28.70;56.50
9901;DHT22;4989;48.772;9.154;2023-06-19T19:14:46;28.60;56.80
9901;DHT22;4989;48.772;9.154;2023-06-19T19:19:48;28.60;56.80
9901;DHT22;4989;48.772;9.154;2023-06-19T19:24:51;28.70;57.20
9901;DHT22;4989;48.772;9.154;2023-06-19T19:29:53;28.70;57.40
9901;DHT22;4989;48.772;9.154;2023-06-19T19:34:55;28.60;56.90
9901;DHT22;4989;48.772;9.154;2023-06-19T19:39:59;28.60;57.10
9901;DHT22;4989;48.772;9.154;2023-06-19T19:45:01;28.40;57.00
9901;DHT22;4989;48.772;9.154;2023-06-19T19:50:07;28.40;57.30
9901;DHT22;4989;48.772;9.154;2023-06-19T19:55:09;28.40;57.30
9901;DHT22;4989;48.772;9.154;2023-06-19T20:00:15;28.40;57.40
9901;DHT22;4989;48.772;9.154;2023-06-19T20:05:18;28.30;57.30
9901;DHT22;4989;48.772;9.154;2023-06-19T20:10:20;28.30;57.30
9901;DHT22;4989;48.772;9.154;2023-06-19T20:15:23;28.30;57.50
9901;DHT22;4989;48.772;9.154;2023-06-19T20:20:27;28.30;57.60
9901;DHT22;4989;48.772;9.154;2023-06-19T20:25:29;28.20;57.90
9901;DHT22;4989;48.772;9.154;2023-06-19T20:30:32;28.20;58.60
9901;DHT22;4989;48.772;9.154;2023-06-19T20:35:34;28.20;57.90
9901;DHT22;4989;48.772;9.154;2023-06-19T20:40:37;28.10;58.00
9901;DHT22;4989;48.772;9.154;2023-06-19T20:45:39;28.10;59.00
9901;DHT22;4989;48.772;9.154;2023-06-19T20:50:44;28.00;60.60
9901;DHT22;4989;48.772;9.154;2023-06-19T20:55:47;27.90;60.50
9901;DHT22;4989;48.772;9.154;2023-06-19T21:00:49;27.90;59.30
9901;DHT22;4989;48.772;9.154;2023-06-19T21:05:52;27.80;60.40
9901;DHT22;4989;48.772;9.154;2023-06-19T21:10:54;27.90;61.90
9901;DHT22;4989;48.772;9.154;2023-06-19T21:15:56;27.70;62.80
9901;DHT22;4989;48.772;9.154;2023-06-19T21:20:59;27.50;63.70
9901;DHT22;4989;48.772;9.154;2023-06-19T21:26:01;27.40;61.80
9901;DHT22;4989;48.772;9.154;2023-06-19T21:31:03;27.70;61.80
9901;DHT22;4989;48.772;9.154;2023-06-19T21:36:05;27.60;62.40
9901;DHT22;4989;48.772;9.154;2023-06-19T21:41:09;27.50;61.60
9901;DHT22;4989;48.772;9.154;2023-06-19T21:46:11;27.60;62.20
9901;DHT22;4989;48.772;9.154;2023-06-19T21:51:13;27.70;61.00
9901;DHT22;4989;48.772;9.154;2023-06-19T21:56:15;27.70;60.00
9901;DHT22;4989;48.772;9.154;2023-06-19T22:01:18;27.60;60.20
9901;DHT22;4989;48.772;9.154;2023-06-19T22:06:20;27.60;62.70
9901;DHT22;4989;48.772;9.154;2023-06-19T22:11:22;27.50;62.20
9901;DHT22;4989;48.772;9.154;2023-06-19T22:16:25;27.60;60.70
9901;DHT22;4989;48.772;9.154;2023-06-19T22:21:27;27.50;62.10
9901;DHT22;4989;48.772;9.154;2023-06-19T22:26:30;27.40;60.80
9901;DHT22;4989;48.772;9.154;2023-06-19T22:31:38;27.40;62.10
9901;DHT22;4989;48.772;9.154;2023-06-19T22:36:40;27.30;64.50
9901;DHT22;4989;48.772;9.154;2023-06-19T22:41:43;26.70;65.90
9901;DHT22;4989;48.772;9.154;2023-06-19T23:06:57;26.70;66.20
9901;DHT22;4989;48.772;9.154;2023-06-19T23:12:03;25.90;68.50
9901;DHT22;4989;48.772;9.154;2023-06-19T23:17:06;26.30;66.60
9901;DHT22;4989;48.772;9.154;2023-06-19T23:22:09;26.60;64.90
9901;DHT22;4989;48.772;9.154;2023-06-19T23:27:11;26.80;63.20
9901;DHT22;4989;48.772;9.154;2023-06-19T23:32:13;26.90;64.50
9901;DHT22;4989;48.772;9.154;2023-06-19T23:37:15;26.70;66.10
9901;DHT22;4989;48.772;9.154;2023-06-19T23:42:17;25.90;67.30
9901;DHT22;4989;48.772;9.154;2023-06-19T23:57:43;25.70;68.00
